sensor_id;sensor_type;location;lat;lon;timestamp;pressure;altitude;pressure_sealevel;temperature;humidity
9746;BME280;4912;50.836;12.958;2022-10-18T00:01:56;98705.75;;;17.99;96.66
9746;BME280;4912;50.836;12.958;2022-10-18T00:04:26;98707.03;;;18.04;97.11
9746;BME280;4912;50.836;12.958;2022-10-18T00:06:56;98707.38;;;18.12;97.56
9746;BME280;4912;50.836;12.958;2022-10-18T00:09:26;98706.31;;;18.09;97.18
9746;BME280;4912;50.836;12.958;2022-10-18T00:11:56;98701.22;;;18.08;96.64
9746;BME280;4912;50.836;12.958;2022-10-18T00:14:27;98706.28;;;18.04;97.37
9746;BME280;4912;50.836;12.958;2022-10-18T00:16:59;98707.81;;;18.05;97.42
9746;BME280;4912;50.836;12.958;2022-10-18T00:19:29;98713.66;;;18.01;97.49
9746;BME280;4912;50.836;12.958;2022-10-18T00:21:59;98713.13;;;18.02;97.12
9746;BME280;4912;50.836;12.958;2022-10-18T00:24:30;98714.19;;;18.05;98.65
9746;BME280;4912;50.836;12.958;2022-10-18T00:27:00;98712.44;;;18.08;97.33
9746;BME280;4912;50.836;12.958;2022-10-18T00:29:30;98717.78;;;18.11;96.56
9746;BME280;4912;50.836;12.958;2022-10-18T00:32:03;98716.69;;;18.03;97.95
9746;BME280;4912;50.836;12.958;2022-10-18T00:34:33;98715.34;;;17.93;99.16
9746;BME280;4912;50.836;12.958;2022-10-18T00:37:03;98715.34;;;17.93;99.23
9746;BME280;4912;50.836;12.958;2022-10-18T00:39:34;98715.59;;;17.89;99.87
9746;BME280;4912;50.836;12.958;2022-10-18T00:42:04;98721.00;;;17.98;100.00
9746;BME280;4912;50.836;12.958;2022-10-18T00:45:00;98725.66;;;18.07;98.99
9746;BME280;4912;50.836;12.958;2022-10-18T00:47:50;98718.03;;;18.08;98.64
9746;BME280;4912;50.836;12.958;2022-10-18T00:50:24;98719.53;;;18.09;97.90
9746;BME280;4912;50.836;12.958;2022-10-18T00:52:58;98719.28;;;18.07;97.92
9746;BME280;4912;50.836;12.958;2022-10-18T00:55:32;98721.03;;;18.04;97.76
9746;BME280;4912;50.836;12.958;2022-10-18T00:58:03;98717.72;;;18.00;97.44
9746;BME280;4912;50.836;12.958;2022-10-18T01:00:34;98713.09;;;17.97;97.03
9746;BME280;4912;50.836;12.958;2022-10-18T01:03:09;98717.19;;;17.96;97.49
9746;BME280;4912;50.836;12.958;2022-10-18T01:05:42;98715.16;;;17.96;98.33
9746;BME280;4912;50.836;12.958;2022-10-18T01:08:23;98710.81;;;17.95;97.87
9746;BME280;4912;50.836;12.958;2022-10-18T01:11:27;98708.22;;;17.92;99.00
9746;BME280;4912;50.836;12.958;2022-10-18T01:14:14;98707.38;;;17.86;99.60
9746;BME280;4912;50.836;12.958;2022-10-18T01:16:55;98715.75;;;17.80;98.78
9746;BME280;4912;50.836;12.958;2022-10-18T01:19:48;98712.41;;;17.76;98.62
9746;BME280;4912;50.836;12.958;2022-10-18T01:22:43;98713.66;;;17.75;98.75
9746;BME280;4912;50.836;12.958;2022-10-18T01:25:25;98705.75;;;17.74;99.34
9746;BME280;4912;50.836;12.958;2022-10-18T01:28:11;98694.00;;;17.70;100.00
9746;BME280;4912;50.836;12.958;2022-10-18T01:30:53;98699.06;;;17.66;98.85
9746;BME280;4912;50.836;12.958;2022-10-18T01:33:33;98692.06;;;17.55;97.10
9746;BME280;4912;50.836;12.958;2022-10-18T01:36:13;98696.63;;;17.53;97.58
9746;BME280;4912;50.836;12.958;2022-10-18T01:38:46;98697.13;;;17.51;98.77
9746;BME280;4912;50.836;12.958;2022-10-18T01:41:19;98703.19;;;17.50;99.38
9746;BME280;4912;50.836;12.958;2022-10-18T01:43:57;98699.91;;;17.51;99.78
9746;BME280;4912;50.836;12.958;2022-10-18T01:46:32;98706.00;;;17.50;100.00
9746;BME280;4912;50.836;12.958;2022-10-18T01:49:03;98699.13;;;17.51;99.96
9746;BME280;4912;50.836;12.958;2022-10-18T01:51:33;98711.88;;;17.52;100.00
9746;BME280;4912;50.836;12.958;2022-10-18T01:54:04;98707.28;;;17.49;100.00
9746;BME280;4912;50.836;12.958;2022-10-18T01:56:40;98707.00;;;17.47;100.00
9746;BME280;4912;50.836;12.958;2022-10-18T01:59:28;98704.44;;;17.43;100.00
9746;BME280;4912;50.836;12.958;2022-10-18T02:02:15;98708.47;;;17.42;100.00
9746;BME280;4912;50.836;12.958;2022-10-18T02:04:52;98703.38;;;17.41;100.00
9746;BME280;4912;50.836;12.958;2022-10-18T02:07:28;98704.34;;;17.38;100.00
9746;BME280;4912;50.836;12.958;2022-10-18T02:10:07;98705.09;;;17.38;100.00
9746;BME280;4912;50.836;12.958;2022-10-18T02:12:41;98691.34;;;17.35;100.00
9746;BME280;4912;50.836;12.958;2022-10-18T02:15:16;98698.69;;;17.32;100.00
9746;BME280;4912;50.836;12.958;2022-10-18T02:17:51;98700.44;;;17.30;100.00
9746;BME280;4912;50.836;12.958;2022-10-18T02:20:24;98704.44;;;17.23;99.98
9746;BME280;4912;50.836;12.958;2022-10-18T02:22:59;98699.06;;;17.19;100.00
9746;BME280;4912;50.836;12.958;2022-10-18T02:25:31;98705.16;;;17.18;99.64
9746;BME280;4912;50.836;12.958;2022-10-18T02:28:04;98712.47;;;17.15;100.00
9746;BME280;4912;50.836;12.958;2022-10-18T02:30:35;98709.38;;;17.08;100.00
9746;BME280;4912;50.836;12.958;2022-10-18T02:33:15;98707.53;;;17.05;100.00
9746;BME280;4912;50.836;12.958;2022-10-18T02:35:51;98708.53;;;17.02;100.00
9746;BME280;4912;50.836;12.958;2022-10-18T02:38:28;98710.56;;;17.01;100.00
9746;BME280;4912;50.836;12.958;2022-10-18T02:41:00;98711.03;;;17.00;100.00
9746;BME280;4912;50.836;12.958;2022-10-18T02:43:31;98703.59;;;16.97;100.00
9746;BME280;4912;50.836;12.958;2022-10-18T02:46:01;98709.97;;;16.97;100.00
9746;BME280;4912;50.836;12.958;2022-10-18T02:48:34;98708.47;;;16.96;100.00
9746;BME280;4912;50.836;12.958;2022-10-18T02:51:05;98709.50;;;16.99;100.00
9746;BME280;4912;50.836;12.958;2022-10-18T02:53:35;98717.50;;;16.91;99.67
9746;BME280;4912;50.836;12.958;2022-10-18T02:56:05;98713.94;;;16.91;100.00
9746;BME280;4912;50.836;12.958;2022-10-18T02:58:36;98721.31;;;16.88;100.00
9746;BME280;4912;50.836;12.958;2022-10-18T03:01:06;98728.63;;;16.86;100.00
9746;BME280;4912;50.836;12.958;2022-10-18T03:03:38;98716.69;;;16.85;100.00
9746;BME280;4912;50.836;12.958;2022-10-18T03:06:09;98717.25;;;16.89;100.00
9746;BME280;4912;50.836;12.958;2022-10-18T03:08:39;98706.16;;;16.95;100.00
9746;BME280;4912;50.836;12.958;2022-10-18T03:11:09;98701.38;;;17.01;100.00
9746;BME280;4912;50.836;12.958;2022-10-18T03:13:39;98713.13;;;17.05;100.00
9746;BME280;4912;50.836;12.958;2022-10-18T03:16:10;98708.38;;;17.11;100.00
9746;BME280;4912;50.836;12.958;2022-10-18T03:18:43;98715.03;;;17.13;100.00
9746;BME280;4912;50.836;12.958;2022-10-18T03:21:13;98720.88;;;17.15;100.00
9746;BME280;4912;50.836;12.958;2022-10-18T03:23:43;98714.03;;;17.16;100.00
9746;BME280;4912;50.836;12.958;2022-10-18T03:26:13;98717.09;;;17.18;100.00
9746;BME280;4912;50.836;12.958;2022-10-18T03:28:43;98708.50;;;17.22;100.00
9746;BME280;4912;50.836;12.958;2022-10-18T03:31:14;98708.78;;;17.24;100.00
9746;BME280;4912;50.836;12.958;2022-10-18T03:33:47;98713.66;;;17.29;100.00
9746;BME280;4912;50.836;12.958;2022-10-18T03:36:17;98713.72;;;17.35;100.00
9746;BME280;4912;50.836;12.958;2022-10-18T03:38:47;98715.53;;;17.38;100.00
9746;BME280;4912;50.836;12.958;2022-10-18T03:41:17;98724.44;;;17.36;100.00
9746;BME280;4912;50.836;12.958;2022-10-18T03:43:47;98714.50;;;17.35;100.00
9746;BME280;4912;50.836;12.958;2022-10-18T03:46:17;98721.91;;;17.38;100.00
9746;BME280;4912;50.836;12.958;2022-10-18T03:48:50;98716.59;;;17.40;100.00
9746;BME280;4912;50.836;12.958;2022-10-18T03:51:20;98721.69;;;17.42;100.00
9746;BME280;4912;50.836;12.958;2022-10-18T03:53:50;98719.94;;;17.44;100.00
9746;BME280;4912;50.836;12.958;2022-10-18T03:56:20;98716.94;;;17.48;100.00
9746;BME280;4912;50.836;12.958;2022-10-18T03:58:50;98724.63;;;17.53;100.00
9746;BME280;4912;50.836;12.958;2022-10-18T04:01:21;98719.25;;;17.49;100.00
9746;BME280;4912;50.836;12.958;2022-10-18T04:03:54;98726.94;;;17.54;100.00
9746;BME280;4912;50.836;12.958;2022-10-18T04:06:24;98719.78;;;17.53;100.00
9746;BME280;4912;50.836;12.958;2022-10-18T04:08:54;98726.41;;;17.56;100.00
9746;BME280;4912;50.836;12.958;2022-10-18T04:11:24;98713.47;;;17.58;100.00
9746;BME280;4912;50.836;12.958;2022-10-18T04:13:55;98719.63;;;17.63;100.00
9746;BME280;4912;50.836;12.958;2022-10-18T04:16:25;98713.84;;;17.66;100.00
9746;BME280;4912;50.836;12.958;2022-10-18T04:18:58;98720.94;;;17.67;100.00
9746;BME280;4912;50.836;12.958;2022-10-18T04:21:28;98710.81;;;17.70;100.00
9746;BME280;4912;50.836;12.958;2022-10-18T04:23:58;98705.97;;;17.70;100.00
9746;BME280;4912;50.836;12.958;2022-10-18T04:26:28;98703.94;;;17.71;100.00
9746;BME280;4912;50.836;12.958;2022-10-18T04:28:58;98701.94;;;17.71;100.00
9746;BME280;4912;50.836;12.958;2022-10-18T04:31:28;98699.13;;;17.71;100.00
9746;BME280;4912;50.836;12.958;2022-10-18T04:34:01;98702.69;;;17.72;100.00
9746;BME280;4912;50.836;12.958;2022-10-18T04:36:32;98704.44;;;17.69;100.00
9746;BME280;4912;50.836;12.958;2022-10-18T04:39:02;98710.53;;;17.68;100.00
9746;BME280;4912;50.836;12.958;2022-10-18T04:41:32;98707.25;;;17.69;100.00
9746;BME280;4912;50.836;12.958;2022-10-18T04:44:02;98705.50;;;17.72;100.00
9746;BME280;4912;50.836;12.958;2022-10-18T04:46:33;98700.91;;;17.74;100.00
9746;BME280;4912;50.836;12.958;2022-10-18T04:49:05;98699.19;;;17.77;100.00
9746;BME280;4912;50.836;12.958;2022-10-18T04:51:36;98700.91;;;17.74;100.00
9746;BME280;4912;50.836;12.958;2022-10-18T04:54:06;98697.09;;;17.72;100.00
9746;BME280;4912;50.836;12.958;2022-10-18T04:56:36;98680.03;;;17.70;100.00
9746;BME280;4912;50.836;12.958;2022-10-18T04:59:06;98672.06;;;17.63;100.00
9746;BME280;4912;50.836;12.958;2022-10-18T05:01:36;98679.47;;;17.66;100.00
9746;BME280;4912;50.836;12.958;2022-10-18T05:04:09;98676.94;;;17.68;100.00
9746;BME280;4912;50.836;12.958;2022-10-18T05:06:39;98671.09;;;17.66;100.00
9746;BME280;4912;50.836;12.958;2022-10-18T05:09:09;98665.22;;;17.64;100.00
9746;BME280;4912;50.836;12.958;2022-10-18T05:11:39;98667.78;;;17.67;100.00
9746;BME280;4912;50.836;12.958;2022-10-18T05:14:09;98651.75;;;17.68;100.00
9746;BME280;4912;50.836;12.958;2022-10-18T05:16:39;98649.72;;;17.68;100.00
9746;BME280;4912;50.836;12.958;2022-10-18T05:19:12;98647.97;;;17.71;100.00
9746;BME280;4912;50.836;12.958;2022-10-18T05:21:42;98649.22;;;17.70;100.00
9746;BME280;4912;50.836;12.958;2022-10-18T05:24:13;98647.53;;;17.78;100.00
9746;BME280;4912;50.836;12.958;2022-10-18T05:26:43;98656.19;;;17.80;100.00
9746;BME280;4912;50.836;12.958;2022-10-18T05:29:13;98660.25;;;17.79;100.00
9746;BME280;4912;50.836;12.958;2022-10-18T05:31:43;98653.38;;;17.80;100.00
9746;BME280;4912;50.836;12.958;2022-10-18T05:34:17;98654.38;;;17.77;100.00
9746;BME280;4912;50.836;12.958;2022-10-18T05:36:48;98662.28;;;17.78;100.00
9746;BME280;4912;50.836;12.958;2022-10-18T05:39:18;98652.41;;;17.83;100.00
9746;BME280;4912;50.836;12.958;2022-10-18T05:41:48;98652.66;;;17.85;100.00
9746;BME280;4912;50.836;12.958;2022-10-18T05:44:18;98647.06;;;17.85;100.00
9746;BME280;4912;50.836;12.958;2022-10-18T05:46:48;98639.69;;;17.87;100.00
9746;BME280;4912;50.836;12.958;2022-10-18T05:49:21;98634.59;;;17.86;100.00
9746;BME280;4912;50.836;12.958;2022-10-18T05:51:51;98640.19;;;17.86;100.00
9746;BME280;4912;50.836;12.958;2022-10-18T05:54:21;98649.66;;;17.88;100.00
9746;BME280;4912;50.836;12.958;2022-10-18T05:56:51;98663.59;;;17.83;100.00
9746;BME280;4912;50.836;12.958;2022-10-18T05:59:22;98658.88;;;17.69;100.00
9746;BME280;4912;50.836;12.958;2022-10-18T06:01:52;98658.88;;;17.69;100.00
9746;BME280;4912;50.836;12.958;2022-10-18T06:04:24;98643.47;;;17.79;100.00
9746;BME280;4912;50.836;12.958;2022-10-18T06:06:55;98642.19;;;17.80;100.00
9746;BME280;4912;50.836;12.958;2022-10-18T06:09:25;98648.34;;;17.84;100.00
9746;BME280;4912;50.836;12.958;2022-10-18T06:11:56;98655.53;;;17.90;100.00
9746;BME280;4912;50.836;12.958;2022-10-18T06:14:26;98643.56;;;17.90;100.00
9746;BME280;4912;50.836;12.958;2022-10-18T06:16:56;98646.84;;;17.88;100.00
9746;BME280;4912;50.836;12.958;2022-10-18T06:19:29;98650.19;;;17.92;100.00
9746;BME280;4912;50.836;12.958;2022-10-18T06:21:59;98651.22;;;17.95;100.00
9746;BME280;4912;50.836;12.958;2022-10-18T06:24:29;98652.00;;;17.95;100.00
9746;BME280;4912;50.836;12.958;2022-10-18T06:27:00;98649.72;;;17.99;100.00
9746;BME280;4912;50.836;12.958;2022-10-18T06:29:34;98655.84;;;18.04;100.00
9746;BME280;4912;50.836;12.958;2022-10-18T06:32:05;98661.41;;;17.98;100.00
9746;BME280;4912;50.836;12.958;2022-10-18T06:34:38;98662.44;;;17.95;100.00
9746;BME280;4912;50.836;12.958;2022-10-18T06:37:08;98664.22;;;17.98;100.00
9746;BME280;4912;50.836;12.958;2022-10-18T06:39:38;98664.78;;;18.02;100.00
9746;BME280;4912;50.836;12.958;2022-10-18T06:42:08;98657.41;;;18.05;100.00
9746;BME280;4912;50.836;12.958;2022-10-18T06:44:39;98655.66;;;18.07;100.00
9746;BME280;4912;50.836;12.958;2022-10-18T06:47:09;98652.31;;;18.09;100.00
9746;BME280;4912;50.836;12.958;2022-10-18T06:49:41;98656.19;;;18.11;100.00
9746;BME280;4912;50.836;12.958;2022-10-18T06:52:12;98650.56;;;18.11;100.00
9746;BME280;4912;50.836;12.958;2022-10-18T06:54:42;98648.53;;;18.12;100.00
9746;BME280;4912;50.836;12.958;2022-10-18T06:57:12;98650.34;;;18.15;100.00
9746;BME280;4912;50.836;12.958;2022-10-18T06:59:42;98659.78;;;18.17;100.00
9746;BME280;4912;50.836;12.958;2022-10-18T07:02:14;98665.16;;;18.21;100.00
9746;BME280;4912;50.836;12.958;2022-10-18T07:04:47;98644.28;;;18.22;100.00
9746;BME280;4912;50.836;12.958;2022-10-18T07:07:17;98646.06;;;18.19;100.00
9746;BME280;4912;50.836;12.958;2022-10-18T07:09:48;98647.81;;;18.17;100.00
9746;BME280;4912;50.836;12.958;2022-10-18T07:12:18;98646.78;;;18.14;100.00
9746;BME280;4912;50.836;12.958;2022-10-18T07:14:48;98638.63;;;18.16;100.00
9746;BME280;4912;50.836;12.958;2022-10-18T07:17:18;98645.31;;;18.24;100.00
9746;BME280;4912;50.836;12.958;2022-10-18T07:19:51;98649.41;;;18.29;100.00
9746;BME280;4912;50.836;12.958;2022-10-18T07:22:21;98661.91;;;18.33;100.00
9746;BME280;4912;50.836;12.958;2022-10-18T07:24:56;98670.59;;;18.35;100.00
9746;BME280;4912;50.836;12.958;2022-10-18T07:27:26;98681.34;;;18.42;100.00
9746;BME280;4912;50.836;12.958;2022-10-18T07:29:56;98666.09;;;18.44;100.00
9746;BME280;4912;50.836;12.958;2022-10-18T07:32:26;98664.06;;;18.50;100.00
9746;BME280;4912;50.836;12.958;2022-10-18T07:34:59;98644.28;;;18.59;100.00
9746;BME280;4912;50.836;12.958;2022-10-18T07:37:29;98639.72;;;18.67;100.00
9746;BME280;4912;50.836;12.958;2022-10-18T07:40:00;98637.41;;;18.65;100.00
9746;BME280;4912;50.836;12.958;2022-10-18T07:42:30;98623.91;;;18.64;100.00
9746;BME280;4912;50.836;12.958;2022-10-18T07:45:00;98618.81;;;18.68;100.00
9746;BME280;4912;50.836;12.958;2022-10-18T07:47:30;98609.13;;;18.69;100.00
9746;BME280;4912;50.836;12.958;2022-10-18T07:50:03;98604.56;;;18.66;100.00
9746;BME280;4912;50.836;12.958;2022-10-18T07:52:34;98596.38;;;18.68;100.00
9746;BME280;4912;50.836;12.958;2022-10-18T07:55:05;98607.91;;;18.81;100.00
9746;BME280;4912;50.836;12.958;2022-10-18T07:57:36;98603.59;;;18.91;100.00
9746;BME280;4912;50.836;12.958;2022-10-18T08:00:07;98598.06;;;19.08;100.00
9746;BME280;4912;50.836;12.958;2022-10-18T08:02:38;98601.91;;;19.27;100.00
9746;BME280;4912;50.836;12.958;2022-10-18T08:05:11;98592.03;;;19.48;100.00
9746;BME280;4912;50.836;12.958;2022-10-18T08:07:41;98590.75;;;19.60;100.00
9746;BME280;4912;50.836;12.958;2022-10-18T08:10:11;98586.66;;;19.73;99.36
9746;BME280;4912;50.836;12.958;2022-10-18T08:12:41;98586.91;;;19.75;98.73
9746;BME280;4912;50.836;12.958;2022-10-18T08:15:12;98585.63;;;19.70;98.20
9746;BME280;4912;50.836;12.958;2022-10-18T08:17:42;98580.78;;;19.65;98.44
9746;BME280;4912;50.836;12.958;2022-10-18T08:20:15;98575.41;;;19.61;97.61
9746;BME280;4912;50.836;12.958;2022-10-18T08:22:56;98577.72;;;19.63;98.31
9746;BME280;4912;50.836;12.958;2022-10-18T08:25:27;98570.31;;;19.66;98.26
9746;BME280;4912;50.836;12.958;2022-10-18T08:27:57;98570.06;;;19.69;97.66
9746;BME280;4912;50.836;12.958;2022-10-18T08:30:27;98560.84;;;19.74;97.42
9746;BME280;4912;50.836;12.958;2022-10-18T08:32:57;98557.28;;;19.79;96.78
9746;BME280;4912;50.836;12.958;2022-10-18T08:35:30;98563.94;;;19.82;96.71
9746;BME280;4912;50.836;12.958;2022-10-18T08:38:01;98565.22;;;19.70;96.26
9746;BME280;4912;50.836;12.958;2022-10-18T08:40:32;98564.44;;;19.63;96.42
9746;BME280;4912;50.836;12.958;2022-10-18T08:43:05;98556.78;;;19.64;96.33
9746;BME280;4912;50.836;12.958;2022-10-18T08:45:39;98546.06;;;19.68;95.40
9746;BME280;4912;50.836;12.958;2022-10-18T08:48:18;98556.25;;;19.88;95.00
9746;BME280;4912;50.836;12.958;2022-10-18T08:50:53;98552.84;;;20.23;92.55
9746;BME280;4912;50.836;12.958;2022-10-18T08:53:28;98557.84;;;20.58;90.62
9746;BME280;4912;50.836;12.958;2022-10-18T08:56:06;98540.34;;;21.28;86.55
9746;BME280;4912;50.836;12.958;2022-10-18T08:58:42;98543.16;;;21.28;84.38
9746;BME280;4912;50.836;12.958;2022-10-18T09:01:27;98541.72;;;21.10;86.05
9746;BME280;4912;50.836;12.958;2022-10-18T09:04:17;98538.38;;;21.12;86.16
9746;BME280;4912;50.836;12.958;2022-10-18T09:07:13;98539.91;;;21.18;85.45
9746;BME280;4912;50.836;12.958;2022-10-18T09:09:54;98540.75;;;21.43;84.93
9746;BME280;4912;50.836;12.958;2022-10-18T09:12:48;98545.50;;;22.94;77.56
9746;BME280;4912;50.836;12.958;2022-10-18T09:15:31;98534.94;;;24.35;70.56
9746;BME280;4912;50.836;12.958;2022-10-18T09:18:24;98536.06;;;23.87;72.08
9746;BME280;4912;50.836;12.958;2022-10-18T09:21:07;98523.31;;;23.54;71.62
9746;BME280;4912;50.836;12.958;2022-10-18T09:23:52;98541.72;;;23.42;71.82
9746;BME280;4912;50.836;12.958;2022-10-18T09:26:31;98552.44;;;22.74;73.52
9746;BME280;4912;50.836;12.958;2022-10-18T09:29:29;98547.25;;;22.60;74.49
9746;BME280;4912;50.836;12.958;2022-10-18T09:32:20;98545.22;;;22.79;74.19
9746;BME280;4912;50.836;12.958;2022-10-18T09:35:00;98550.56;;;24.10;68.32
9746;BME280;4912;50.836;12.958;2022-10-18T09:37:33;98542.00;;;24.42;66.43
9746;BME280;4912;50.836;12.958;2022-10-18T09:40:14;98539.13;;;24.68;65.30
9746;BME280;4912;50.836;12.958;2022-10-18T09:42:52;98552.63;;;24.88;63.33
9746;BME280;4912;50.836;12.958;2022-10-18T09:45:26;98547.56;;;25.08;62.62
9746;BME280;4912;50.836;12.958;2022-10-18T09:48:03;98564.81;;;23.91;66.31
9746;BME280;4912;50.836;12.958;2022-10-18T09:50:39;98576.03;;;23.14;71.58
9746;BME280;4912;50.836;12.958;2022-10-18T09:53:16;98588.41;;;22.68;74.32
9746;BME280;4912;50.836;12.958;2022-10-18T09:55:57;98585.75;;;22.33;76.10
9746;BME280;4912;50.836;12.958;2022-10-18T09:58:39;98590.28;;;21.87;80.18
9746;BME280;4912;50.836;12.958;2022-10-18T10:01:14;98602.03;;;21.61;86.19
9746;BME280;4912;50.836;12.958;2022-10-18T10:03:47;98605.50;;;21.43;89.26
9746;BME280;4912;50.836;12.958;2022-10-18T10:06:23;98616.16;;;21.15;91.25
9746;BME280;4912;50.836;12.958;2022-10-18T10:08:59;98622.94;;;20.90;93.06
9746;BME280;4912;50.836;12.958;2022-10-18T10:11:35;98624.53;;;20.68;93.79
9746;BME280;4912;50.836;12.958;2022-10-18T10:14:08;98633.84;;;20.41;95.02
9746;BME280;4912;50.836;12.958;2022-10-18T10:16:45;98634.34;;;20.23;96.13
9746;BME280;4912;50.836;12.958;2022-10-18T10:19:19;98635.91;;;19.79;98.87
9746;BME280;4912;50.836;12.958;2022-10-18T10:22:04;98641.78;;;19.70;100.00
9746;BME280;4912;50.836;12.958;2022-10-18T10:24:46;98634.63;;;19.58;100.00
9746;BME280;4912;50.836;12.958;2022-10-18T10:27:27;98644.53;;;19.37;100.00
9746;BME280;4912;50.836;12.958;2022-10-18T10:30:00;98646.81;;;19.38;100.00
9746;BME280;4912;50.836;12.958;2022-10-18T10:32:45;98654.78;;;19.45;100.00
9746;BME280;4912;50.836;12.958;2022-10-18T10:35:22;98656.53;;;19.37;100.00
9746;BME280;4912;50.836;12.958;2022-10-18T10:38:22;98654.75;;;19.40;100.00
9746;BME280;4912;50.836;12.958;2022-10-18T10:40:54;98652.97;;;19.37;100.00
9746;BME280;4912;50.836;12.958;2022-10-18T10:43:28;98656.28;;;19.41;100.00
9746;BME280;4912;50.836;12.958;2022-10-18T10:46:07;98646.81;;;19.27;100.00
9746;BME280;4912;50.836;12.958;2022-10-18T10:48:45;98651.13;;;19.22;100.00
9746;BME280;4912;50.836;12.958;2022-10-18T10:51:31;98657.50;;;19.17;100.00
9746;BME280;4912;50.836;12.958;2022-10-18T10:54:04;98661.34;;;19.20;100.00
9746;BME280;4912;50.836;12.958;2022-10-18T10:56:52;98661.84;;;19.24;100.00
9746;BME280;4912;50.836;12.958;2022-10-18T10:59:30;98659.81;;;19.25;100.00
9746;BME280;4912;50.836;12.958;2022-10-18T11:02:18;98658.78;;;19.28;100.00
9746;BME280;4912;50.836;12.958;2022-10-18T11:04:51;98660.59;;;19.31;100.00
9746;BME280;4912;50.836;12.958;2022-10-18T11:07:24;98660.06;;;19.27;100.00
9746;BME280;4912;50.836;12.958;2022-10-18T11:10:02;98662.38;;;19.28;100.00
9746;BME280;4912;50.836;12.958;2022-10-18T11:12:37;98657.00;;;19.25;100.00
9746;BME280;4912;50.836;12.958;2022-10-18T11:15:18;98663.91;;;19.23;100.00
9746;BME280;4912;50.836;12.958;2022-10-18T11:18:01;98667.94;;;19.11;100.00
9746;BME280;4912;50.836;12.958;2022-10-18T11:20:48;98676.38;;;19.17;100.00
9746;BME280;4912;50.836;12.958;2022-10-18T11:23:26;98682.47;;;19.15;100.00
9746;BME280;4912;50.836;12.958;2022-10-18T11:26:13;98676.34;;;19.11;100.00
9746;BME280;4912;50.836;12.958;2022-10-18T11:29:04;98682.22;;;19.08;100.00
9746;BME280;4912;50.836;12.958;2022-10-18T11:31:51;98688.59;;;19.08;100.00
9746;BME280;4912;50.836;12.958;2022-10-18T11:34:39;98677.91;;;19.12;100.00
9746;BME280;4912;50.836;12.958;2022-10-18T11:37:29;98676.09;;;19.15;100.00
9746;BME280;4912;50.836;12.958;2022-10-18T11:40:19;98678.19;;;19.20;100.00
9746;BME280;4912;50.836;12.958;2022-10-18T11:43:00;98672.06;;;19.27;100.00
9746;BME280;4912;50.836;12.958;2022-10-18T11:45:40;98675.66;;;19.33;100.00
9746;BME280;4912;50.836;12.958;2022-10-18T11:48:30;98669.81;;;19.37;100.00
9746;BME280;4912;50.836;12.958;2022-10-18T11:51:16;98668.53;;;19.43;100.00
9746;BME280;4912;50.836;12.958;2022-10-18T11:54:32;98667.28;;;19.50;100.00
9746;BME280;4912;50.836;12.958;2022-10-18T11:57:22;98673.63;;;19.45;100.00
9746;BME280;4912;50.836;12.958;2022-10-18T12:00:07;98668.00;;;19.45;100.00
9746;BME280;4912;50.836;12.958;2022-10-18T12:03:25;98670.09;;;19.50;100.00
9746;BME280;4912;50.836;12.958;2022-10-18T12:06:04;98678.28;;;19.48;100.00
9746;BME280;4912;50.836;12.958;2022-10-18T12:08:39;98675.47;;;19.48;100.00
9746;BME280;4912;50.836;12.958;2022-10-18T12:11:14;98688.19;;;19.38;100.00
9746;BME280;4912;50.836;12.958;2022-10-18T12:13:50;98687.13;;;19.30;100.00
9746;BME280;4912;50.836;12.958;2022-10-18T12:16:26;98698.06;;;19.22;100.00
9746;BME280;4912;50.836;12.958;2022-10-18T12:19:22;98703.63;;;19.05;100.00
9746;BME280;4912;50.836;12.958;2022-10-18T12:22:11;98699.53;;;19.01;100.00
9746;BME280;4912;50.836;12.958;2022-10-18T12:24:43;98693.91;;;19.01;100.00
9746;BME280;4912;50.836;12.958;2022-10-18T12:27:15;98690.63;;;19.08;100.00
9746;BME280;4912;50.836;12.958;2022-10-18T12:29:49;98686.84;;;19.22;100.00
9746;BME280;4912;50.836;12.958;2022-10-18T12:32:28;98692.75;;;19.30;100.00
9746;BME280;4912;50.836;12.958;2022-10-18T12:35:08;98688.13;;;19.27;100.00
9746;BME280;4912;50.836;12.958;2022-10-18T12:37:56;98703.19;;;19.23;100.00
9746;BME280;4912;50.836;12.958;2022-10-18T12:40:37;98704.19;;;19.20;100.00
9746;BME280;4912;50.836;12.958;2022-10-18T12:43:15;98699.56;;;19.12;100.00
9746;BME280;4912;50.836;12.958;2022-10-18T12:45:50;98702.63;;;19.08;100.00
9746;BME280;4912;50.836;12.958;2022-10-18T12:48:29;98704.88;;;19.04;100.00
9746;BME280;4912;50.836;12.958;2022-10-18T12:51:12;98692.13;;;19.03;100.00
9746;BME280;4912;50.836;12.958;2022-10-18T12:53:44;98699.81;;;19.08;100.00
9746;BME280;4912;50.836;12.958;2022-10-18T12:56:34;98695.69;;;19.04;100.00
9746;BME280;4912;50.836;12.958;2022-10-18T13:02:30;98707.19;;;19.06;100.00
9746;BME280;4912;50.836;12.958;2022-10-18T13:05:47;98712.28;;;19.02;100.00
9746;BME280;4912;50.836;12.958;2022-10-18T13:08:39;98715.59;;;19.00;100.00
9746;BME280;4912;50.836;12.958;2022-10-18T13:11:30;98712.53;;;19.04;100.00
9746;BME280;4912;50.836;12.958;2022-10-18T13:14:08;98705.16;;;19.06;100.00
9746;BME280;4912;50.836;12.958;2022-10-18T13:17:05;98708.25;;;19.08;100.00
9746;BME280;4912;50.836;12.958;2022-10-18T13:19:52;98706.69;;;19.07;100.00
9746;BME280;4912;50.836;12.958;2022-10-18T13:22:56;98697.25;;;19.10;100.00
9746;BME280;4912;50.836;12.958;2022-10-18T13:25:44;98700.06;;;19.10;100.00
9746;BME280;4912;50.836;12.958;2022-10-18T13:28:29;98698.28;;;19.07;100.00
9746;BME280;4912;50.836;12.958;2022-10-18T13:31:19;98697.75;;;19.09;100.00
9746;BME280;4912;50.836;12.958;2022-10-18T13:33:51;98687.84;;;19.13;100.00
9746;BME280;4912;50.836;12.958;2022-10-18T13:36:23;98675.13;;;19.23;100.00
9746;BME280;4912;50.836;12.958;2022-10-18T13:39:00;98682.03;;;19.34;100.00
9746;BME280;4912;50.836;12.958;2022-10-18T13:48:46;98693.81;;;19.43;100.00
9746;BME280;4912;50.836;12.958;2022-10-18T13:51:37;98700.94;;;19.44;100.00
9746;BME280;4912;50.836;12.958;2022-10-18T13:54:28;98694.34;;;19.53;100.00
9746;BME280;4912;50.836;12.958;2022-10-18T13:57:14;98697.94;;;19.53;100.00
9746;BME280;4912;50.836;12.958;2022-10-18T14:03:19;98703.81;;;19.55;100.00